sensor_id;sensor_type;location;lat;lon;timestamp;P1;durP1;ratioP1;P2;durP2;ratioP2
63346;SDS011;49472;49.880;8.650;2022-08-19T00:01:16;33.35;;;30.35;;
63346;SDS011;49472;49.880;8.650;2022-08-19T00:03:42;35.20;;;31.42;;
63346;SDS011;49472;49.880;8.650;2022-08-19T00:06:07;33.03;;;29.77;;
63346;SDS011;49472;49.880;8.650;2022-08-19T00:08:33;32.85;;;29.55;;
63346;SDS011;49472;49.880;8.650;2022-08-19T00:10:58;35.70;;;32.10;;
63346;SDS011;49472;49.880;8.650;2022-08-19T00:13:24;36.15;;;32.05;;
63346;SDS011;49472;49.880;8.650;2022-08-19T00:15:49;33.22;;;30.15;;
63346;SDS011;49472;49.880;8.650;2022-08-19T00:18:14;33.60;;;30.10;;
63346;SDS011;49472;49.880;8.650;2022-08-19T00:20:39;33.28;;;29.48;;
63346;SDS011;49472;49.880;8.650;2022-08-19T00:23:05;34.33;;;30.95;;
63346;SDS011;49472;49.880;8.650;2022-08-19T00:25:31;33.63;;;30.23;;
63346;SDS011;49472;49.880;8.650;2022-08-19T00:27:56;31.20;;;28.13;;
63346;SDS011;49472;49.880;8.650;2022-08-19T00:30:21;32.85;;;29.65;;
63346;SDS011;49472;49.880;8.650;2022-08-19T00:32:46;33.53;;;29.90;;
63346;SDS011;49472;49.880;8.650;2022-08-19T00:35:12;31.40;;;28.20;;
63346;SDS011;49472;49.880;8.650;2022-08-19T00:37:37;31.55;;;28.55;;
63346;SDS011;49472;49.880;8.650;2022-08-19T00:40:03;31.30;;;28.13;;
63346;SDS011;49472;49.880;8.650;2022-08-19T00:42:29;35.45;;;30.20;;
63346;SDS011;49472;49.880;8.650;2022-08-19T00:44:55;30.67;;;27.77;;
63346;SDS011;49472;49.880;8.650;2022-08-19T00:47:20;32.60;;;29.10;;
63346;SDS011;49472;49.880;8.650;2022-08-19T00:49:53;32.10;;;28.67;;
63346;SDS011;49472;49.880;8.650;2022-08-19T00:54:47;35.83;;;28.92;;
63346;SDS011;49472;49.880;8.650;2022-08-19T00:57:14;32.40;;;29.10;;
63346;SDS011;49472;49.880;8.650;2022-08-19T00:59:40;31.08;;;27.73;;
63346;SDS011;49472;49.880;8.650;2022-08-19T01:02:07;32.80;;;29.52;;
63346;SDS011;49472;49.880;8.650;2022-08-19T01:04:32;32.17;;;28.85;;
63346;SDS011;49472;49.880;8.650;2022-08-19T01:06:58;30.50;;;27.20;;
63346;SDS011;49472;49.880;8.650;2022-08-19T01:09:24;30.73;;;27.48;;
63346;SDS011;49472;49.880;8.650;2022-08-19T01:11:49;34.10;;;30.50;;
63346;SDS011;49472;49.880;8.650;2022-08-19T01:14:14;29.67;;;26.88;;
63346;SDS011;49472;49.880;8.650;2022-08-19T01:16:41;33.35;;;29.33;;
63346;SDS011;49472;49.880;8.650;2022-08-19T01:19:15;31.50;;;28.42;;
63346;SDS011;49472;49.880;8.650;2022-08-19T01:21:54;32.35;;;29.15;;
63346;SDS011;49472;49.880;8.650;2022-08-19T01:24:22;32.65;;;29.40;;
63346;SDS011;49472;49.880;8.650;2022-08-19T01:26:47;32.13;;;28.73;;
63346;SDS011;49472;49.880;8.650;2022-08-19T01:29:12;31.95;;;28.33;;
63346;SDS011;49472;49.880;8.650;2022-08-19T01:31:38;30.55;;;27.35;;
63346;SDS011;49472;49.880;8.650;2022-08-19T01:34:04;32.45;;;29.10;;
63346;SDS011;49472;49.880;8.650;2022-08-19T01:36:40;31.95;;;28.98;;
63346;SDS011;49472;49.880;8.650;2022-08-19T01:39:08;33.90;;;30.30;;
63346;SDS011;49472;49.880;8.650;2022-08-19T01:41:34;34.60;;;31.10;;
63346;SDS011;49472;49.880;8.650;2022-08-19T01:43:59;31.73;;;28.40;;
63346;SDS011;49472;49.880;8.650;2022-08-19T01:46:26;32.90;;;29.50;;
63346;SDS011;49472;49.880;8.650;2022-08-19T01:48:51;32.03;;;28.88;;
63346;SDS011;49472;49.880;8.650;2022-08-19T01:51:16;31.92;;;28.52;;
63346;SDS011;49472;49.880;8.650;2022-08-19T01:53:41;30.88;;;27.58;;
63346;SDS011;49472;49.880;8.650;2022-08-19T01:56:07;32.83;;;29.55;;
63346;SDS011;49472;49.880;8.650;2022-08-19T01:58:38;34.97;;;29.70;;
63346;SDS011;49472;49.880;8.650;2022-08-19T02:01:04;32.65;;;29.25;;
63346;SDS011;49472;49.880;8.650;2022-08-19T02:03:30;33.80;;;30.40;;
63346;SDS011;49472;49.880;8.650;2022-08-19T02:05:59;35.40;;;29.85;;
63346;SDS011;49472;49.880;8.650;2022-08-19T02:08:25;33.55;;;29.02;;
63346;SDS011;49472;49.880;8.650;2022-08-19T02:10:50;32.45;;;28.98;;
63346;SDS011;49472;49.880;8.650;2022-08-19T02:13:16;31.52;;;28.38;;
63346;SDS011;49472;49.880;8.650;2022-08-19T02:15:42;33.13;;;29.67;;
63346;SDS011;49472;49.880;8.650;2022-08-19T02:18:07;38.97;;;30.20;;
63346;SDS011;49472;49.880;8.650;2022-08-19T02:20:33;31.38;;;28.27;;
63346;SDS011;49472;49.880;8.650;2022-08-19T02:22:58;34.05;;;29.80;;
63346;SDS011;49472;49.880;8.650;2022-08-19T02:25:26;32.65;;;29.15;;
63346;SDS011;49472;49.880;8.650;2022-08-19T02:27:51;32.63;;;29.13;;
63346;SDS011;49472;49.880;8.650;2022-08-19T02:30:17;34.88;;;30.65;;
63346;SDS011;49472;49.880;8.650;2022-08-19T02:32:42;34.63;;;30.88;;
63346;SDS011;49472;49.880;8.650;2022-08-19T02:35:08;32.13;;;28.35;;
63346;SDS011;49472;49.880;8.650;2022-08-19T02:37:33;34.13;;;27.98;;
63346;SDS011;49472;49.880;8.650;2022-08-19T02:40:17;31.27;;;28.15;;
63346;SDS011;49472;49.880;8.650;2022-08-19T02:42:43;32.58;;;29.45;;
63346;SDS011;49472;49.880;8.650;2022-08-19T02:45:08;33.85;;;28.52;;
63346;SDS011;49472;49.880;8.650;2022-08-19T02:47:34;31.33;;;28.30;;
63346;SDS011;49472;49.880;8.650;2022-08-19T02:50:00;33.58;;;30.13;;
63346;SDS011;49472;49.880;8.650;2022-08-19T02:52:26;30.40;;;27.58;;
63346;SDS011;49472;49.880;8.650;2022-08-19T02:54:52;30.67;;;27.38;;
63346;SDS011;49472;49.880;8.650;2022-08-19T02:57:17;33.88;;;30.40;;
63346;SDS011;49472;49.880;8.650;2022-08-19T02:59:42;37.70;;;29.25;;
63346;SDS011;49472;49.880;8.650;2022-08-19T03:02:08;34.15;;;30.60;;
63346;SDS011;49472;49.880;8.650;2022-08-19T03:04:33;33.58;;;30.27;;
63346;SDS011;49472;49.880;8.650;2022-08-19T03:06:58;32.28;;;29.15;;
63346;SDS011;49472;49.880;8.650;2022-08-19T03:09:23;32.90;;;29.70;;
63346;SDS011;49472;49.880;8.650;2022-08-19T03:11:48;33.30;;;29.90;;
63346;SDS011;49472;49.880;8.650;2022-08-19T03:14:15;34.88;;;31.27;;
63346;SDS011;49472;49.880;8.650;2022-08-19T03:16:42;34.63;;;31.23;;
63346;SDS011;49472;49.880;8.650;2022-08-19T03:19:07;32.45;;;28.15;;
63346;SDS011;49472;49.880;8.650;2022-08-19T03:21:33;31.50;;;28.40;;
63346;SDS011;49472;49.880;8.650;2022-08-19T03:24:00;31.88;;;28.40;;
63346;SDS011;49472;49.880;8.650;2022-08-19T03:26:25;30.70;;;27.80;;
63346;SDS011;49472;49.880;8.650;2022-08-19T03:28:50;31.20;;;28.20;;
63346;SDS011;49472;49.880;8.650;2022-08-19T03:31:18;30.05;;;26.95;;
63346;SDS011;49472;49.880;8.650;2022-08-19T03:33:43;31.67;;;28.38;;
63346;SDS011;49472;49.880;8.650;2022-08-19T03:38:38;31.40;;;28.00;;
63346;SDS011;49472;49.880;8.650;2022-08-19T03:41:05;31.58;;;28.48;;
63346;SDS011;49472;49.880;8.650;2022-08-19T03:43:31;35.25;;;29.88;;
63346;SDS011;49472;49.880;8.650;2022-08-19T03:46:01;30.15;;;27.30;;
63346;SDS011;49472;49.880;8.650;2022-08-19T03:48:27;31.00;;;27.85;;
63346;SDS011;49472;49.880;8.650;2022-08-19T03:50:52;32.10;;;28.67;;
63346;SDS011;49472;49.880;8.650;2022-08-19T03:53:17;32.78;;;29.52;;
63346;SDS011;49472;49.880;8.650;2022-08-19T03:55:43;35.38;;;27.00;;
63346;SDS011;49472;49.880;8.650;2022-08-19T03:58:08;31.83;;;28.27;;
63346;SDS011;49472;49.880;8.650;2022-08-19T04:00:33;32.50;;;28.60;;
63346;SDS011;49472;49.880;8.650;2022-08-19T04:02:59;31.45;;;28.52;;
63346;SDS011;49472;49.880;8.650;2022-08-19T04:05:25;31.77;;;28.67;;
63346;SDS011;49472;49.880;8.650;2022-08-19T04:07:53;31.23;;;28.20;;
63346;SDS011;49472;49.880;8.650;2022-08-19T04:10:18;31.75;;;28.67;;
63346;SDS011;49472;49.880;8.650;2022-08-19T04:12:44;37.67;;;29.27;;
63346;SDS011;49472;49.880;8.650;2022-08-19T04:15:09;34.65;;;29.38;;
63346;SDS011;49472;49.880;8.650;2022-08-19T04:17:34;33.05;;;29.00;;
63346;SDS011;49472;49.880;8.650;2022-08-19T04:19:59;33.65;;;30.15;;
63346;SDS011;49472;49.880;8.650;2022-08-19T04:22:25;34.20;;;30.38;;
63346;SDS011;49472;49.880;8.650;2022-08-19T04:24:50;37.70;;;30.85;;
63346;SDS011;49472;49.880;8.650;2022-08-19T04:27:15;32.72;;;29.50;;
63346;SDS011;49472;49.880;8.650;2022-08-19T04:29:41;41.10;;;29.95;;
63346;SDS011;49472;49.880;8.650;2022-08-19T04:32:06;34.47;;;30.83;;
63346;SDS011;49472;49.880;8.650;2022-08-19T04:34:31;31.85;;;28.60;;
63346;SDS011;49472;49.880;8.650;2022-08-19T04:36:57;32.30;;;29.10;;
63346;SDS011;49472;49.880;8.650;2022-08-19T04:39:24;33.58;;;30.10;;
63346;SDS011;49472;49.880;8.650;2022-08-19T04:42:10;40.50;;;31.83;;
63346;SDS011;49472;49.880;8.650;2022-08-19T04:44:54;36.22;;;32.50;;
63346;SDS011;49472;49.880;8.650;2022-08-19T04:47:20;34.78;;;31.02;;
63346;SDS011;49472;49.880;8.650;2022-08-19T04:49:45;48.72;;;33.78;;
63346;SDS011;49472;49.880;8.650;2022-08-19T04:52:10;38.88;;;32.72;;
63346;SDS011;49472;49.880;8.650;2022-08-19T04:54:35;53.22;;;33.08;;
63346;SDS011;49472;49.880;8.650;2022-08-19T04:57:00;36.38;;;32.50;;
63346;SDS011;49472;49.880;8.650;2022-08-19T04:59:26;35.50;;;31.90;;
63346;SDS011;49472;49.880;8.650;2022-08-19T05:01:51;37.60;;;30.92;;
63346;SDS011;49472;49.880;8.650;2022-08-19T05:04:19;35.88;;;31.73;;
63346;SDS011;49472;49.880;8.650;2022-08-19T05:06:46;32.63;;;29.33;;
63346;SDS011;49472;49.880;8.650;2022-08-19T05:09:13;37.08;;;29.25;;
63346;SDS011;49472;49.880;8.650;2022-08-19T05:11:39;33.83;;;30.42;;
63346;SDS011;49472;49.880;8.650;2022-08-19T05:14:05;32.85;;;29.40;;
63346;SDS011;49472;49.880;8.650;2022-08-19T05:16:30;33.05;;;29.75;;
63346;SDS011;49472;49.880;8.650;2022-08-19T05:18:56;37.92;;;30.83;;
63346;SDS011;49472;49.880;8.650;2022-08-19T05:21:40;34.72;;;29.73;;
63346;SDS011;49472;49.880;8.650;2022-08-19T05:24:25;31.40;;;27.95;;
63346;SDS011;49472;49.880;8.650;2022-08-19T05:26:51;40.28;;;32.03;;
63346;SDS011;49472;49.880;8.650;2022-08-19T05:29:18;39.17;;;30.15;;
63346;SDS011;49472;49.880;8.650;2022-08-19T05:31:44;33.75;;;30.33;;
63346;SDS011;49472;49.880;8.650;2022-08-19T05:34:10;33.08;;;29.50;;
63346;SDS011;49472;49.880;8.650;2022-08-19T05:36:36;35.53;;;31.92;;
63346;SDS011;49472;49.880;8.650;2022-08-19T05:39:04;43.83;;;29.50;;
63346;SDS011;49472;49.880;8.650;2022-08-19T05:41:29;38.30;;;30.63;;
63346;SDS011;49472;49.880;8.650;2022-08-19T05:44:00;45.83;;;28.42;;
63346;SDS011;49472;49.880;8.650;2022-08-19T05:46:25;38.40;;;30.67;;
63346;SDS011;49472;49.880;8.650;2022-08-19T05:48:51;33.20;;;29.80;;
63346;SDS011;49472;49.880;8.650;2022-08-19T05:51:16;34.58;;;30.98;;
63346;SDS011;49472;49.880;8.650;2022-08-19T05:53:41;36.25;;;29.80;;
63346;SDS011;49472;49.880;8.650;2022-08-19T05:56:07;33.72;;;30.27;;
63346;SDS011;49472;49.880;8.650;2022-08-19T05:58:33;38.95;;;30.30;;
63346;SDS011;49472;49.880;8.650;2022-08-19T06:00:59;31.88;;;28.80;;
63346;SDS011;49472;49.880;8.650;2022-08-19T06:03:29;34.35;;;28.60;;
63346;SDS011;49472;49.880;8.650;2022-08-19T06:05:54;32.13;;;29.10;;
63346;SDS011;49472;49.880;8.650;2022-08-19T06:08:20;31.10;;;28.02;;
63346;SDS011;49472;49.880;8.650;2022-08-19T06:10:45;32.05;;;28.77;;
63346;SDS011;49472;49.880;8.650;2022-08-19T06:13:10;40.10;;;29.88;;
63346;SDS011;49472;49.880;8.650;2022-08-19T06:15:35;42.22;;;30.25;;
63346;SDS011;49472;49.880;8.650;2022-08-19T06:18:00;31.38;;;27.35;;
63346;SDS011;49472;49.880;8.650;2022-08-19T06:20:26;30.63;;;27.52;;
63346;SDS011;49472;49.880;8.650;2022-08-19T06:22:51;31.20;;;28.10;;
63346;SDS011;49472;49.880;8.650;2022-08-19T06:25:16;32.85;;;29.35;;
63346;SDS011;49472;49.880;8.650;2022-08-19T06:27:42;31.38;;;28.35;;
63346;SDS011;49472;49.880;8.650;2022-08-19T06:30:07;31.67;;;28.45;;
63346;SDS011;49472;49.880;8.650;2022-08-19T06:32:32;32.60;;;29.25;;
63346;SDS011;49472;49.880;8.650;2022-08-19T06:34:58;30.40;;;27.27;;
63346;SDS011;49472;49.880;8.650;2022-08-19T06:37:23;30.40;;;27.45;;
63346;SDS011;49472;49.880;8.650;2022-08-19T06:39:49;32.15;;;28.70;;
63346;SDS011;49472;49.880;8.650;2022-08-19T06:42:14;28.85;;;26.10;;
63346;SDS011;49472;49.880;8.650;2022-08-19T06:44:43;28.48;;;25.58;;
63346;SDS011;49472;49.880;8.650;2022-08-19T06:47:10;28.60;;;25.23;;
63346;SDS011;49472;49.880;8.650;2022-08-19T06:49:36;26.90;;;24.50;;
63346;SDS011;49472;49.880;8.650;2022-08-19T06:52:01;26.08;;;23.52;;
63346;SDS011;49472;49.880;8.650;2022-08-19T06:54:27;26.70;;;24.17;;
63346;SDS011;49472;49.880;8.650;2022-08-19T06:56:54;24.58;;;22.45;;
63346;SDS011;49472;49.880;8.650;2022-08-19T06:59:20;26.23;;;23.73;;
63346;SDS011;49472;49.880;8.650;2022-08-19T07:01:47;26.63;;;23.80;;
63346;SDS011;49472;49.880;8.650;2022-08-19T07:04:14;30.05;;;22.30;;
63346;SDS011;49472;49.880;8.650;2022-08-19T07:06:40;24.98;;;22.73;;
63346;SDS011;49472;49.880;8.650;2022-08-19T07:09:06;23.75;;;21.65;;
63346;SDS011;49472;49.880;8.650;2022-08-19T07:11:32;26.27;;;22.85;;
63346;SDS011;49472;49.880;8.650;2022-08-19T07:13:57;24.52;;;22.08;;
63346;SDS011;49472;49.880;8.650;2022-08-19T07:16:23;23.95;;;21.98;;
63346;SDS011;49472;49.880;8.650;2022-08-19T07:18:48;25.30;;;22.63;;
63346;SDS011;49472;49.880;8.650;2022-08-19T07:21:15;22.50;;;20.13;;
63346;SDS011;49472;49.880;8.650;2022-08-19T07:23:41;26.23;;;21.92;;
63346;SDS011;49472;49.880;8.650;2022-08-19T07:26:08;22.92;;;20.75;;
63346;SDS011;49472;49.880;8.650;2022-08-19T07:28:34;22.80;;;20.80;;
63346;SDS011;49472;49.880;8.650;2022-08-19T07:30:59;24.58;;;22.48;;
63346;SDS011;49472;49.880;8.650;2022-08-19T07:33:25;23.73;;;21.52;;
63346;SDS011;49472;49.880;8.650;2022-08-19T07:35:51;23.85;;;21.80;;
63346;SDS011;49472;49.880;8.650;2022-08-19T07:38:17;23.08;;;21.17;;
63346;SDS011;49472;49.880;8.650;2022-08-19T07:40:43;24.42;;;22.33;;
63346;SDS011;49472;49.880;8.650;2022-08-19T07:43:10;24.50;;;22.15;;
63346;SDS011;49472;49.880;8.650;2022-08-19T07:45:35;24.73;;;22.25;;
63346;SDS011;49472;49.880;8.650;2022-08-19T07:48:01;23.92;;;21.52;;
63346;SDS011;49472;49.880;8.650;2022-08-19T07:50:26;26.27;;;23.25;;
63346;SDS011;49472;49.880;8.650;2022-08-19T07:52:51;24.38;;;21.90;;
63346;SDS011;49472;49.880;8.650;2022-08-19T07:55:19;24.13;;;21.50;;
63346;SDS011;49472;49.880;8.650;2022-08-19T07:57:44;24.92;;;21.42;;
63346;SDS011;49472;49.880;8.650;2022-08-19T08:00:09;22.10;;;20.30;;
63346;SDS011;49472;49.880;8.650;2022-08-19T08:02:35;22.00;;;20.13;;
63346;SDS011;49472;49.880;8.650;2022-08-19T08:05:00;23.00;;;20.55;;
63346;SDS011;49472;49.880;8.650;2022-08-19T08:07:44;23.33;;;21.10;;
63346;SDS011;49472;49.880;8.650;2022-08-19T08:10:28;20.20;;;18.67;;
63346;SDS011;49472;49.880;8.650;2022-08-19T08:12:53;29.00;;;19.58;;
63346;SDS011;49472;49.880;8.650;2022-08-19T08:15:20;22.13;;;20.30;;
63346;SDS011;49472;49.880;8.650;2022-08-19T08:17:45;21.45;;;19.30;;
63346;SDS011;49472;49.880;8.650;2022-08-19T08:20:10;19.13;;;17.48;;
63346;SDS011;49472;49.880;8.650;2022-08-19T08:22:36;20.20;;;18.60;;
63346;SDS011;49472;49.880;8.650;2022-08-19T08:25:21;19.95;;;18.10;;
63346;SDS011;49472;49.880;8.650;2022-08-19T08:27:47;18.15;;;16.30;;
63346;SDS011;49472;49.880;8.650;2022-08-19T08:30:18;18.67;;;17.17;;
63346;SDS011;49472;49.880;8.650;2022-08-19T08:32:44;17.48;;;16.17;;
63346;SDS011;49472;49.880;8.650;2022-08-19T08:35:11;17.13;;;16.00;;
63346;SDS011;49472;49.880;8.650;2022-08-19T08:37:37;17.27;;;15.80;;
63346;SDS011;49472;49.880;8.650;2022-08-19T08:40:04;17.13;;;15.88;;
63346;SDS011;49472;49.880;8.650;2022-08-19T08:42:32;17.63;;;16.17;;
63346;SDS011;49472;49.880;8.650;2022-08-19T08:45:00;17.27;;;15.95;;
63346;SDS011;49472;49.880;8.650;2022-08-19T08:47:29;17.95;;;16.48;;
63346;SDS011;49472;49.880;8.650;2022-08-19T08:50:07;18.92;;;17.23;;
63346;SDS011;49472;49.880;8.650;2022-08-19T08:52:37;18.88;;;17.02;;
63346;SDS011;49472;49.880;8.650;2022-08-19T08:55:08;19.35;;;17.52;;
63346;SDS011;49472;49.880;8.650;2022-08-19T08:57:47;20.10;;;16.80;;
63346;SDS011;49472;49.880;8.650;2022-08-19T09:00:20;17.63;;;16.10;;
63346;SDS011;49472;49.880;8.650;2022-08-19T09:02:46;17.40;;;16.05;;
63346;SDS011;49472;49.880;8.650;2022-08-19T09:05:11;16.58;;;15.15;;
63346;SDS011;49472;49.880;8.650;2022-08-19T09:07:53;17.10;;;15.70;;
63346;SDS011;49472;49.880;8.650;2022-08-19T09:10:29;16.95;;;15.82;;
63346;SDS011;49472;49.880;8.650;2022-08-19T09:15:42;16.80;;;15.57;;
63346;SDS011;49472;49.880;8.650;2022-08-19T09:18:09;17.05;;;15.65;;
63346;SDS011;49472;49.880;8.650;2022-08-19T09:20:34;17.75;;;16.10;;
63346;SDS011;49472;49.880;8.650;2022-08-19T09:22:59;17.77;;;16.08;;
63346;SDS011;49472;49.880;8.650;2022-08-19T09:25:25;18.60;;;16.98;;
63346;SDS011;49472;49.880;8.650;2022-08-19T09:27:51;18.85;;;17.00;;
63346;SDS011;49472;49.880;8.650;2022-08-19T09:30:22;18.55;;;17.10;;
63346;SDS011;49472;49.880;8.650;2022-08-19T09:32:48;18.38;;;17.08;;
63346;SDS011;49472;49.880;8.650;2022-08-19T09:35:14;19.60;;;17.85;;
63346;SDS011;49472;49.880;8.650;2022-08-19T09:37:42;19.20;;;17.55;;
63346;SDS011;49472;49.880;8.650;2022-08-19T09:40:08;19.92;;;18.25;;
63346;SDS011;49472;49.880;8.650;2022-08-19T09:42:33;18.83;;;17.42;;
63346;SDS011;49472;49.880;8.650;2022-08-19T09:44:59;18.38;;;17.08;;
63346;SDS011;49472;49.880;8.650;2022-08-19T09:47:24;18.25;;;16.98;;
63346;SDS011;49472;49.880;8.650;2022-08-19T09:49:49;19.77;;;18.05;;
63346;SDS011;49472;49.880;8.650;2022-08-19T09:52:15;20.75;;;18.65;;
63346;SDS011;49472;49.880;8.650;2022-08-19T09:54:41;18.38;;;17.17;;
63346;SDS011;49472;49.880;8.650;2022-08-19T09:57:06;19.23;;;17.65;;
63346;SDS011;49472;49.880;8.650;2022-08-19T09:59:31;20.30;;;18.70;;
63346;SDS011;49472;49.880;8.650;2022-08-19T10:01:57;21.45;;;19.83;;
63346;SDS011;49472;49.880;8.650;2022-08-19T10:04:23;20.25;;;18.65;;
63346;SDS011;49472;49.880;8.650;2022-08-19T10:07:08;20.48;;;18.80;;
63346;SDS011;49472;49.880;8.650;2022-08-19T10:09:33;19.60;;;17.90;;
63346;SDS011;49472;49.880;8.650;2022-08-19T10:11:58;19.83;;;18.13;;
63346;SDS011;49472;49.880;8.650;2022-08-19T10:14:26;20.90;;;19.00;;
63346;SDS011;49472;49.880;8.650;2022-08-19T10:16:52;20.95;;;19.27;;
63346;SDS011;49472;49.880;8.650;2022-08-19T10:19:17;21.95;;;20.00;;
63346;SDS011;49472;49.880;8.650;2022-08-19T10:21:45;21.45;;;19.58;;
63346;SDS011;49472;49.880;8.650;2022-08-19T10:24:10;20.60;;;18.88;;
63346;SDS011;49472;49.880;8.650;2022-08-19T10:26:36;20.58;;;19.17;;
63346;SDS011;49472;49.880;8.650;2022-08-19T10:29:02;19.65;;;18.15;;
63346;SDS011;49472;49.880;8.650;2022-08-19T10:31:30;19.80;;;18.30;;
63346;SDS011;49472;49.880;8.650;2022-08-19T10:33:56;19.73;;;17.95;;
63346;SDS011;49472;49.880;8.650;2022-08-19T10:36:32;19.42;;;17.92;;
63346;SDS011;49472;49.880;8.650;2022-08-19T10:38:58;19.58;;;18.13;;
63346;SDS011;49472;49.880;8.650;2022-08-19T10:41:28;20.08;;;18.55;;
63346;SDS011;49472;49.880;8.650;2022-08-19T10:43:54;18.60;;;16.77;;
63346;SDS011;49472;49.880;8.650;2022-08-19T10:46:20;21.58;;;19.65;;
63346;SDS011;49472;49.880;8.650;2022-08-19T10:48:46;19.88;;;18.38;;
63346;SDS011;49472;49.880;8.650;2022-08-19T10:51:11;20.73;;;18.67;;
63346;SDS011;49472;49.880;8.650;2022-08-19T10:53:56;19.20;;;17.80;;
63346;SDS011;49472;49.880;8.650;2022-08-19T10:56:21;19.42;;;17.90;;
63346;SDS011;49472;49.880;8.650;2022-08-19T10:59:05;20.92;;;19.33;;
63346;SDS011;49472;49.880;8.650;2022-08-19T11:01:31;20.17;;;18.58;;
63346;SDS011;49472;49.880;8.650;2022-08-19T11:03:59;19.38;;;18.08;;
63346;SDS011;49472;49.880;8.650;2022-08-19T11:06:25;18.83;;;17.52;;
63346;SDS011;49472;49.880;8.650;2022-08-19T11:08:51;20.52;;;19.00;;
63346;SDS011;49472;49.880;8.650;2022-08-19T11:11:16;20.30;;;18.73;;
63346;SDS011;49472;49.880;8.650;2022-08-19T11:13:42;20.75;;;19.05;;
63346;SDS011;49472;49.880;8.650;2022-08-19T11:16:09;20.02;;;18.65;;
63346;SDS011;49472;49.880;8.650;2022-08-19T11:18:35;20.27;;;18.20;;
63346;SDS011;49472;49.880;8.650;2022-08-19T11:21:11;17.58;;;16.38;;
63346;SDS011;49472;49.880;8.650;2022-08-19T11:23:37;18.13;;;16.83;;
63346;SDS011;49472;49.880;8.650;2022-08-19T11:26:02;17.63;;;16.42;;
63346;SDS011;49472;49.880;8.650;2022-08-19T11:28:27;17.83;;;16.25;;
63346;SDS011;49472;49.880;8.650;2022-08-19T11:30:53;18.67;;;17.48;;
63346;SDS011;49472;49.880;8.650;2022-08-19T11:33:18;19.35;;;17.95;;
63346;SDS011;49472;49.880;8.650;2022-08-19T11:35:44;18.35;;;17.15;;
63346;SDS011;49472;49.880;8.650;2022-08-19T11:38:09;17.98;;;16.45;;
63346;SDS011;49472;49.880;8.650;2022-08-19T11:40:34;17.42;;;16.33;;
63346;SDS011;49472;49.880;8.650;2022-08-19T11:42:59;19.80;;;18.05;;
63346;SDS011;49472;49.880;8.650;2022-08-19T11:45:26;19.20;;;17.77;;
63346;SDS011;49472;49.880;8.650;2022-08-19T11:47:51;18.67;;;17.40;;
63346;SDS011;49472;49.880;8.650;2022-08-19T11:50:17;19.30;;;17.95;;
63346;SDS011;49472;49.880;8.650;2022-08-19T11:52:42;20.00;;;18.60;;
63346;SDS011;49472;49.880;8.650;2022-08-19T11:55:09;20.25;;;18.85;;
63346;SDS011;49472;49.880;8.650;2022-08-19T11:57:34;20.25;;;18.75;;
63346;SDS011;49472;49.880;8.650;2022-08-19T11:59:59;20.60;;;18.95;;
63346;SDS011;49472;49.880;8.650;2022-08-19T12:02:25;20.45;;;18.95;;
63346;SDS011;49472;49.880;8.650;2022-08-19T12:04:50;19.58;;;18.17;;
63346;SDS011;49472;49.880;8.650;2022-08-19T12:07:15;21.08;;;19.25;;
63346;SDS011;49472;49.880;8.650;2022-08-19T12:09:40;20.02;;;18.52;;
63346;SDS011;49472;49.880;8.650;2022-08-19T12:12:06;20.40;;;18.95;;
63346;SDS011;49472;49.880;8.650;2022-08-19T12:14:31;21.80;;;20.10;;
63346;SDS011;49472;49.880;8.650;2022-08-19T12:16:57;19.90;;;18.35;;
63346;SDS011;49472;49.880;8.650;2022-08-19T12:19:22;20.40;;;18.90;;
63346;SDS011;49472;49.880;8.650;2022-08-19T12:21:49;21.63;;;19.73;;
63346;SDS011;49472;49.880;8.650;2022-08-19T12:24:14;20.55;;;18.60;;
63346;SDS011;49472;49.880;8.650;2022-08-19T12:26:39;18.90;;;17.60;;
63346;SDS011;49472;49.880;8.650;2022-08-19T12:29:04;18.55;;;17.23;;
63346;SDS011;49472;49.880;8.650;2022-08-19T12:31:30;17.67;;;16.38;;
63346;SDS011;49472;49.880;8.650;2022-08-19T12:33:55;18.20;;;16.80;;
63346;SDS011;49472;49.880;8.650;2022-08-19T12:36:20;18.55;;;17.02;;
63346;SDS011;49472;49.880;8.650;2022-08-19T12:38:47;17.48;;;16.02;;
63346;SDS011;49472;49.880;8.650;2022-08-19T12:41:13;19.20;;;16.70;;
63346;SDS011;49472;49.880;8.650;2022-08-19T12:43:38;16.73;;;15.52;;
63346;SDS011;49472;49.880;8.650;2022-08-19T12:46:04;16.17;;;15.18;;
63346;SDS011;49472;49.880;8.650;2022-08-19T12:48:30;16.50;;;15.40;;
63346;SDS011;49472;49.880;8.650;2022-08-19T12:50:55;15.40;;;14.23;;
63346;SDS011;49472;49.880;8.650;2022-08-19T12:53:21;14.45;;;13.57;;
63346;SDS011;49472;49.880;8.650;2022-08-19T12:55:47;14.45;;;13.50;;
63346;SDS011;49472;49.880;8.650;2022-08-19T12:58:12;14.77;;;13.80;;
63346;SDS011;49472;49.880;8.650;2022-08-19T13:00:37;14.60;;;13.70;;
63346;SDS011;49472;49.880;8.650;2022-08-19T13:03:03;13.65;;;12.63;;
63346;SDS011;49472;49.880;8.650;2022-08-19T13:05:29;13.02;;;12.38;;
63346;SDS011;49472;49.880;8.650;2022-08-19T13:07:55;13.98;;;12.90;;
63346;SDS011;49472;49.880;8.650;2022-08-19T13:10:22;13.35;;;12.65;;
63346;SDS011;49472;49.880;8.650;2022-08-19T13:12:48;12.70;;;11.82;;
63346;SDS011;49472;49.880;8.650;2022-08-19T13:15:14;13.00;;;11.93;;
63346;SDS011;49472;49.880;8.650;2022-08-19T13:17:40;11.80;;;11.05;;
63346;SDS011;49472;49.880;8.650;2022-08-19T13:20:09;11.88;;;11.27;;
63346;SDS011;49472;49.880;8.650;2022-08-19T13:22:34;11.48;;;10.98;;
63346;SDS011;49472;49.880;8.650;2022-08-19T13:25:03;13.95;;;10.55;;
63346;SDS011;49472;49.880;8.650;2022-08-19T13:27:29;11.55;;;10.65;;
63346;SDS011;49472;49.880;8.650;2022-08-19T13:29:55;11.57;;;10.98;;
63346;SDS011;49472;49.880;8.650;2022-08-19T13:32:39;10.40;;;9.90;;
63346;SDS011;49472;49.880;8.650;2022-08-19T13:35:27;10.88;;;10.38;;
63346;SDS011;49472;49.880;8.650;2022-08-19T13:37:52;10.73;;;10.13;;
63346;SDS011;49472;49.880;8.650;2022-08-19T13:40:19;11.07;;;10.48;;
63346;SDS011;49472;49.880;8.650;2022-08-19T13:42:45;12.30;;;11.70;;
63346;SDS011;49472;49.880;8.650;2022-08-19T13:45:11;12.20;;;11.50;;
63346;SDS011;49472;49.880;8.650;2022-08-19T13:47:36;12.68;;;11.82;;
63346;SDS011;49472;49.880;8.650;2022-08-19T13:50:07;11.70;;;11.10;;
63346;SDS011;49472;49.880;8.650;2022-08-19T13:52:32;11.63;;;10.98;;
63346;SDS011;49472;49.880;8.650;2022-08-19T13:54:58;11.30;;;10.70;;
63346;SDS011;49472;49.880;8.650;2022-08-19T13:57:23;10.80;;;10.20;;
63346;SDS011;49472;49.880;8.650;2022-08-19T13:59:48;11.05;;;10.40;;
63346;SDS011;49472;49.880;8.650;2022-08-19T14:02:14;10.73;;;10.13;;
63346;SDS011;49472;49.880;8.650;2022-08-19T14:04:39;10.88;;;10.23;;
63346;SDS011;49472;49.880;8.650;2022-08-19T14:07:05;10.10;;;9.60;;
63346;SDS011;49472;49.880;8.650;2022-08-19T14:09:30;11.13;;;10.57;;
63346;SDS011;49472;49.880;8.650;2022-08-19T14:11:55;10.57;;;9.73;;
63346;SDS011;49472;49.880;8.650;2022-08-19T14:14:21;10.45;;;9.85;;
63346;SDS011;49472;49.880;8.650;2022-08-19T14:16:46;10.68;;;9.63;;
63346;SDS011;49472;49.880;8.650;2022-08-19T14:19:11;9.65;;;9.20;;
63346;SDS011;49472;49.880;8.650;2022-08-19T14:21:37;9.50;;;9.00;;
63346;SDS011;49472;49.880;8.650;2022-08-19T14:24:02;10.10;;;9.10;;
63346;SDS011;49472;49.880;8.650;2022-08-19T14:26:27;9.25;;;8.75;;